Terminal Aerodrome Forecast
Issued by NWS Billings, MT

Home | Current Version | Previous Version | Text Only | Print | Product List | Glossary On
Versions: 1 2 3 4 5 6 7 8 9 10 11 12
000
FTUS45 KBYZ 102338
TAFMLS
TAF
KMLS 102338Z 1100/1124 27012KT P6SM SKC
     FM110300 30012G20KT P6SM SCT250 WS020/32050KT
     FM111200 30012G20KT P6SM BKN200=

USA.gov is the U.S. government's official web portal to all federal, state and local government web resources and services.